PWSweather.com
Personal Weather Stations
Station Observations
DW6440
Atglen Borough, Atglen, PA 19310

Atglen BoroughAtglen, PA 19310

Lat: 39.9469, Lon: -75.979

Elevation: 498

Station Type: Davis Vantage Pro 2

http://atglenweather.net/

Latest ConditionsUpdated 9:49:16 AM EST Wednesday, Nov 21, 2018
Currently Today's Max Today's Min Today's Average
Temperature 37.8°F3.2°C 37.8°F3.2°C 25.7°F-3.5°C 30.2°F-1.0°C
Dew Point 29.5°F-1.4°C 29.5°F-1.4°C 22.8°F-5.1°C 25.3°F-3.7°C
Winds 4.9 mph W7.9 kmh W 4.9 mph -7.9 kmh - - 1.0 mph 1.6 kmh
Wind Gusts 12.1 mph19.5 kmh 13.0 mph20.9 kmh - -
Humidity 72% 92% 72% 82%
Pressure 30.11 in1019.6 mb 30.12 in1020.0 mb 30.09 in1019.0 mb -
Hour Temp Dew Point Humidity Winds Wind Gusts Pressure Precip Precip Rate Daily Precip Total
09:49 AM 37.8°F3.2°C 29.5°F-1.4°C 72% 4.9 mph W7.9 kmh W 12.1 mph19.5 kmh 30.11 in1019.6 mb 0.00 in0.0 mm 0.00 in0.0 mm 0.00 in0.0 mm
09:34 AM 37.0°F2.8°C 29.5°F-1.4°C 74% 4.9 mph SW7.9 kmh SW 10.1 mph16.3 kmh 30.11 in1019.6 mb 0.00 in0.0 mm 0.00 in0.0 mm 0.00 in0.0 mm
09:19 AM 36.3°F2.4°C 28.6°F-1.9°C 73% 4.0 mph SW6.4 kmh SW 13.0 mph20.9 kmh 30.11 in1019.6 mb 0.00 in0.0 mm 0.00 in0.0 mm 0.00 in0.0 mm
09:04 AM 35.6°F2.0°C 28.8°F-1.8°C 76% 2.9 mph SW4.7 kmh SW 10.1 mph16.3 kmh 30.12 in1020.0 mb 0.00 in0.0 mm 0.00 in0.0 mm 0.00 in0.0 mm
08:49 AM 34.2°F1.2°C 28.4°F-2.0°C 79% 2.9 mph SSW4.7 kmh SSW 7.0 mph11.3 kmh 30.12 in1020.0 mb 0.00 in0.0 mm 0.00 in0.0 mm 0.00 in0.0 mm
08:34 AM 32.5°F0.3°C 28.2°F-2.1°C 84% 2.0 mph SSW3.2 kmh SSW 5.0 mph8.0 kmh 30.12 in1020.0 mb 0.00 in0.0 mm 0.00 in0.0 mm 0.00 in0.0 mm
08:19 AM 30.2°F-1.0°C 27.7°F-2.4°C 90% 0.9 mph WSW1.4 kmh WSW 4.0 mph6.4 kmh 30.12 in1020.0 mb 0.00 in0.0 mm 0.00 in0.0 mm 0.00 in0.0 mm
08:04 AM 27.9°F-2.3°C 25.9°F-3.4°C 92% 0.9 mph WSW1.4 kmh WSW 2.9 mph4.7 kmh 30.12 in1020.0 mb 0.00 in0.0 mm 0.00 in0.0 mm 0.00 in0.0 mm
07:49 AM 27.0°F-2.8°C 24.6°F-4.1°C 91% Calm Calm 2.0 mph3.2 kmh 30.12 in1020.0 mb 0.00 in0.0 mm 0.00 in0.0 mm 0.00 in0.0 mm
07:34 AM 26.2°F-3.2°C 23.9°F-4.5°C 91% 0.9 mph WSW1.4 kmh WSW 3.0 mph4.8 kmh 30.11 in1019.6 mb 0.00 in0.0 mm 0.00 in0.0 mm 0.00 in0.0 mm
07:19 AM 25.9°F-3.4°C 23.4°F-4.8°C 90% 0.9 mph WSW1.4 kmh WSW 2.9 mph4.7 kmh 30.11 in1019.6 mb 0.00 in0.0 mm 0.00 in0.0 mm 0.00 in0.0 mm
07:04 AM 25.9°F-3.4°C 23.0°F-5.0°C 89% 0.9 mph WSW1.4 kmh WSW 3.0 mph4.8 kmh 30.11 in1019.6 mb 0.00 in0.0 mm 0.00 in0.0 mm 0.00 in0.0 mm
06:49 AM 25.7°F-3.5°C 23.0°F-5.0°C 89% 0.9 mph WSW1.4 kmh WSW 2.0 mph3.2 kmh 30.11 in1019.6 mb 0.00 in0.0 mm 0.00 in0.0 mm 0.00 in0.0 mm
06:34 AM 25.9°F-3.4°C 22.8°F-5.1°C 88% Calm Calm 1.0 mph1.6 kmh 30.11 in1019.6 mb 0.00 in0.0 mm 0.00 in0.0 mm 0.00 in0.0 mm
06:19 AM 26.1°F-3.3°C 23.0°F-5.0°C 88% Calm Calm 0.9 mph1.4 kmh 30.11 in1019.6 mb 0.00 in0.0 mm 0.00 in0.0 mm 0.00 in0.0 mm
06:04 AM 26.2°F-3.2°C 23.2°F-4.9°C 88% Calm Calm 0.9 mph1.4 kmh 30.10 in1019.3 mb 0.00 in0.0 mm 0.00 in0.0 mm 0.00 in0.0 mm
05:49 AM 26.4°F-3.1°C 23.0°F-5.0°C 87% Calm Calm 0.9 mph1.4 kmh 30.10 in1019.3 mb 0.00 in0.0 mm 0.00 in0.0 mm 0.00 in0.0 mm
05:34 AM 26.6°F-3.0°C 23.0°F-5.0°C 86% Calm Calm 0.9 mph1.4 kmh 30.10 in1019.3 mb 0.00 in0.0 mm 0.00 in0.0 mm 0.00 in0.0 mm
05:19 AM 27.0°F-2.8°C 23.4°F-4.8°C 86% Calm Calm 0.9 mph1.4 kmh 30.10 in1019.3 mb 0.00 in0.0 mm 0.00 in0.0 mm 0.00 in0.0 mm
05:04 AM 27.1°F-2.7°C 23.2°F-4.9°C 85% Calm Calm 0.9 mph1.4 kmh 30.10 in1019.3 mb 0.00 in0.0 mm 0.00 in0.0 mm 0.00 in0.0 mm
04:49 AM 27.3°F-2.6°C 23.4°F-4.8°C 85% Calm Calm 0.9 mph1.4 kmh 30.09 in1019.0 mb 0.00 in0.0 mm 0.00 in0.0 mm 0.00 in0.0 mm
04:34 AM 27.7°F-2.4°C 23.5°F-4.7°C 84% Calm Calm 0.9 mph1.4 kmh 30.09 in1019.0 mb 0.00 in0.0 mm 0.00 in0.0 mm 0.00 in0.0 mm
04:19 AM 27.9°F-2.3°C 23.4°F-4.8°C 83% Calm Calm -- 30.09 in1019.0 mb 0.00 in0.0 mm 0.00 in0.0 mm 0.00 in0.0 mm
04:04 AM 28.2°F-2.1°C 23.7°F-4.6°C 83% Calm Calm 0.9 mph1.4 kmh 30.09 in1019.0 mb 0.00 in0.0 mm 0.00 in0.0 mm 0.00 in0.0 mm
03:49 AM 28.8°F-1.8°C 23.9°F-4.5°C 82% Calm Calm 0.9 mph1.4 kmh 30.09 in1019.0 mb 0.00 in0.0 mm 0.00 in0.0 mm 0.00 in0.0 mm
03:34 AM 29.1°F-1.6°C 24.3°F-4.3°C 82% Calm Calm 0.9 mph1.4 kmh 30.09 in1019.0 mb 0.00 in0.0 mm 0.00 in0.0 mm 0.00 in0.0 mm
03:19 AM 29.5°F-1.4°C 24.6°F-4.1°C 82% Calm Calm 0.9 mph1.4 kmh 30.09 in1019.0 mb 0.00 in0.0 mm 0.00 in0.0 mm 0.00 in0.0 mm
03:04 AM 29.8°F-1.2°C 24.4°F-4.2°C 80% Calm Calm 2.0 mph3.2 kmh 30.09 in1019.0 mb 0.00 in0.0 mm 0.00 in0.0 mm 0.00 in0.0 mm
02:49 AM 30.4°F-0.9°C 25.0°F-3.9°C 80% Calm Calm 2.0 mph3.2 kmh 30.10 in1019.3 mb 0.00 in0.0 mm 0.00 in0.0 mm 0.00 in0.0 mm
02:34 AM 30.7°F-0.7°C 25.0°F-3.9°C 79% Calm Calm 2.0 mph3.2 kmh 30.10 in1019.3 mb 0.00 in0.0 mm 0.00 in0.0 mm 0.00 in0.0 mm
02:19 AM 31.3°F-0.4°C 25.5°F-3.6°C 79% 0.9 mph WSW1.4 kmh WSW 2.9 mph4.7 kmh 30.10 in1019.3 mb 0.00 in0.0 mm 0.00 in0.0 mm 0.00 in0.0 mm
02:04 AM 31.6°F-0.2°C 25.5°F-3.6°C 78% 0.9 mph WSW1.4 kmh WSW 4.0 mph6.4 kmh 30.10 in1019.3 mb 0.00 in0.0 mm 0.00 in0.0 mm 0.00 in0.0 mm
01:49 AM 32.4°F0.2°C 25.9°F-3.4°C 77% Calm Calm 3.0 mph4.8 kmh 30.10 in1019.3 mb 0.00 in0.0 mm 0.00 in0.0 mm 0.00 in0.0 mm
01:34 AM 32.7°F0.4°C 26.2°F-3.2°C 77% 0.9 mph WNW1.4 kmh WNW 4.0 mph6.4 kmh 30.11 in1019.6 mb 0.00 in0.0 mm 0.00 in0.0 mm 0.00 in0.0 mm
01:18 AM 32.9°F0.5°C 26.2°F-3.2°C 76% 2.0 mph S3.2 kmh S 6.0 mph9.7 kmh 30.11 in1019.6 mb 0.00 in0.0 mm 0.00 in0.0 mm 0.00 in0.0 mm
01:03 AM 33.4°F0.8°C 26.8°F-2.9°C 76% 2.0 mph SW3.2 kmh SW 4.9 mph7.9 kmh 30.11 in1019.6 mb 0.00 in0.0 mm 0.00 in0.0 mm 0.00 in0.0 mm
12:48 AM 33.6°F0.9°C 26.8°F-2.9°C 76% 2.0 mph SW3.2 kmh SW 4.9 mph7.9 kmh 30.11 in1019.6 mb 0.00 in0.0 mm 0.00 in0.0 mm 0.00 in0.0 mm
12:33 AM 34.2°F1.2°C 27.3°F-2.6°C 76% 0.9 mph W1.4 kmh W 6.0 mph9.7 kmh 30.11 in1019.6 mb 0.00 in0.0 mm 0.00 in0.0 mm 0.00 in0.0 mm
12:18 AM 34.3°F1.3°C 27.5°F-2.5°C 76% 2.0 mph WSW3.2 kmh WSW 6.9 mph11.1 kmh 30.11 in1019.6 mb 0.00 in0.0 mm 0.00 in0.0 mm 0.00 in0.0 mm
12:03 AM 35.2°F1.8°C 27.5°F-2.5°C 73% 0.9 mph WSW1.4 kmh WSW 4.0 mph6.4 kmh 30.11 in1019.6 mb 0.00 in0.0 mm 0.00 in0.0 mm 0.00 in0.0 mm